Weather at Brännebrona Airport

Public forecast

Using degrees Celsius for public forecast. Weather courtesy of forecast.io.

Closest aviation weather report (METAR) to Brännebrona Airport

Report is more than 6 hours old.

Closest report is Karlsborg Air Base, 28.4 nm (52.5 km) E.

2022/11/14 15:20 (retrieved 2 years ago)

ESIA 141520Z AUTO 01003KT 9999 OVC021/// 08/07 Q1022

Closest aviation forecast (TAF) to Brännebrona Airport

Forecast is more than 12 hours old.

Closest forecast is Gothenburg-Landvetter Airport, 69.3 nm (128.4 km) SW.

2023/02/22 21:21 (retrieved 1 year ago)

TAF TAF ESGG 222030Z 2221/2321 15010KT 9999 BKN025 PROB40 2300/2303 2000 SNRA BKN008 BECMG 2303/2305 4000 -RADZ BR OVC006 TEMPO 2305/2321 1200 OVC003 BECMG 2314/2316 VRB03KT